Time;durP1;ratioP1;P1;durP2;ratioP2;P2;SDS_P1;SDS_P2;PMS_P1;PMS_P2;Temp;Humidity;BMP_temperature;BMP_pressure;BME280_temperature;BME280_humidity;BME280_pressure;Samples;Min_cycle;Max_cycle;Signal;HPM_P1;HPM_P2
2022/12/21 00:04:17;;;;;;;70.08;31.48;;;;;;;;;;4490095;79;28525;-83
2022/12/21 00:10:18;;;;;;;69.12;31.25;;;;;;;;;;4497123;78;28521;-84
2022/12/21 00:16:20;;;;;;;73.57;31.15;;;;;;;;;;4492483;78;28547;-84
2022/12/21 00:22:21;;;;;;;71.62;30.92;;;;;;;;;;4479698;79;28508;-84
2022/12/21 00:28:23;;;;;;;68.40;32.00;;;;;;;;;;4481668;79;28627;-84
2022/12/21 00:34:24;;;;;;;71.05;31.55;;;;;;;;;;4473434;79;28476;-84
2022/12/21 00:40:25;;;;;;;66.65;30.45;;;;;;;;;;4488897;79;28475;-84
2022/12/21 00:46:29;;;;;;;72.30;31.23;;;;;;;;;;4489782;78;28435;-84
2022/12/21 00:52:30;;;;;;;70.83;30.35;;;;;;;;;;4324601;80;28473;-84
2022/12/21 00:58:32;;;;;;;68.92;31.17;;;;;;;;;;4357525;79;44103;-84
2022/12/21 01:04:33;;;;;;;69.15;30.97;;;;;;;;;;4298026;82;28487;-84
2022/12/21 01:10:34;;;;;;;77.80;34.08;;;;;;;;;;4299791;81;28463;-83
2022/12/21 01:16:35;;;;;;;67.50;29.52;;;;;;;;;;4409001;79;28561;-85
2022/12/21 01:22:36;;;;;;;67.90;29.00;;;;;;;;;;4368331;80;28516;-84
2022/12/21 01:28:37;;;;;;;74.90;32.35;;;;;;;;;;4403682;78;28540;-84
2022/12/21 01:34:38;;;;;;;66.82;29.00;;;;;;;;;;4450716;78;28549;-85
2022/12/21 01:40:40;;;;;;;67.42;29.02;;;;;;;;;;4418948;80;28503;-84
2022/12/21 01:46:44;;;;;;;69.35;29.52;;;;;;;;;;4418579;80;28499;-84
2022/12/21 01:52:48;;;;;;;66.28;30.10;;;;;;;;;;4398190;80;28561;-84
2022/12/21 01:58:49;;;;;;;65.57;29.87;;;;;;;;;;4495037;76;28508;-84
2022/12/21 02:04:51;;;;;;;64.90;29.05;;;;;;;;;;4580851;76;28567;-84
2022/12/21 02:10:53;;;;;;;64.03;29.15;;;;;;;;;;4570323;76;28508;-84
2022/12/21 02:17:03;;;;;;;68.75;28.73;;;;;;;;;;4555911;76;28537;-84
2022/12/21 02:23:25;;;;;;;69.17;29.42;;;;;;;;;;4565343;76;28479;-84
2022/12/21 02:29:31;;;;;;;62.95;28.17;;;;;;;;;;4536563;76;28518;-83
2022/12/21 02:35:32;;;;;;;;;;;;;;;;;;4573473;76;28449;-84
2022/12/21 02:41:34;;;;;;;67.22;29.52;;;;;;;;;;4579596;76;20235;-83
2022/12/21 02:47:37;;;;;;;60.38;26.82;;;;;;;;;;4565549;76;28578;-83
2022/12/21 02:53:38;;;;;;;63.85;27.55;;;;;;;;;;4593344;76;28562;-83
2022/12/21 02:59:45;;;;;;;61.37;27.55;;;;;;;;;;4550711;76;28544;-83
2022/12/21 03:05:45;;;;;;;;;;;;;;;;;;4509589;77;28528;-83
2022/12/21 03:11:50;;;;;;;64.77;27.22;;;;;;;;;;4517535;77;20243;-83
2022/12/21 04:04:54;;;;;;;67.37;27.60;;;;;;;3.79;75.92;99225.62;3458941;101;44572;-85
2022/12/21 04:35:19;;;;;;;67.92;26.97;;;;;;;3.39;74.96;99243.62;3392116;102;43841;-84
2022/12/21 04:41:20;;;;;;;60.55;27.07;;;;;;;3.42;75.47;99237.43;3483655;100;28548;-84
2022/12/21 04:47:21;;;;;;;64.03;26.05;;;;;;;3.24;74.78;99240.41;3523593;100;42968;-84
2022/12/21 04:53:22;;;;;;;63.17;27.25;;;;;;;3.27;76.05;99242.70;3748376;88;28518;-84
2022/12/21 04:59:24;;;;;;;62.83;26.45;;;;;;;3.16;75.23;99246.62;4026826;87;28603;-85
2022/12/21 05:05:25;;;;;;;63.68;26.65;;;;;;;3.29;75.91;99254.48;4149732;85;43198;-84
2022/12/21 05:11:26;;;;;;;62.08;26.90;;;;;;;3.38;76.50;99260.06;4250210;81;43386;-85
2022/12/21 05:17:28;;;;;;;66.72;29.77;;;;;;;3.32;75.62;99264.75;4325507;81;44125;-84
2022/12/21 05:23:29;;;;;;;80.92;33.83;;;;;;;3.17;78.23;99264.70;4321558;81;43091;-85
2022/12/21 05:29:30;;;;;;;86.08;36.45;;;;;;;3.34;78.14;99252.95;4308995;81;28546;-84
2022/12/21 05:35:32;;;;;;;66.45;28.73;;;;;;;3.39;77.04;99252.94;4322406;81;28586;-84
2022/12/21 05:41:33;;;;;;;60.83;26.90;;;;;;;3.21;72.98;99252.21;4309368;81;43761;-85
2022/12/21 05:47:34;;;;;;;65.35;27.60;;;;;;;2.98;71.93;99254.89;4304769;81;28597;-85
2022/12/21 05:53:43;;;;;;;62.00;27.10;;;;;;;2.96;72.14;99253.41;4308447;81;28482;-84
2022/12/21 05:59:44;;;;;;;63.30;28.17;;;;;;;3.16;72.30;99267.03;4316498;81;28550;-84
2022/12/21 06:05:46;;;;;;;66.85;28.67;;;;;;;3.31;71.77;99257.30;4329521;81;44139;-85
2022/12/21 06:11:47;;;;;;;79.90;34.27;;;;;;;3.30;73.11;99258.31;4314286;81;28459;-83
2022/12/21 06:17:48;;;;;;;78.52;35.10;;;;;;;3.33;76.64;99251.30;4318202;81;28502;-85
2022/12/21 06:23:49;;;;;;;64.07;29.42;;;;;;;3.30;73.15;99254.81;4309602;81;43806;-85
2022/12/21 06:29:50;;;;;;;61.23;27.50;;;;;;;3.25;71.66;99255.86;4298591;81;43491;-84
2022/12/21 06:36:01;;;;;;;67.03;27.65;;;;;;;3.15;70.46;99252.09;4310335;81;44136;-85
2022/12/21 06:42:03;;;;;;;62.13;27.10;;;;;;;3.21;69.52;99252.21;4324169;81;28510;-85
2022/12/21 06:48:05;;;;;;;62.55;27.82;;;;;;;3.17;69.06;99251.41;4317298;81;43485;-85
2022/12/21 06:54:08;;;;;;;59.58;25.95;;;;;;;3.16;70.12;99242.63;4315631;81;41715;-85
2022/12/21 07:00:13;;;;;;;59.90;26.93;;;;;;;3.23;68.32;99236.59;4314556;81;28527;-85
2022/12/21 07:06:15;;;;;;;59.48;24.87;;;;;;;3.35;69.73;99228.54;4300466;81;42711;-85
2022/12/21 07:12:17;;;;;;;64.62;27.82;;;;;;;3.49;69.72;99217.63;4308882;81;44176;-85
2022/12/21 07:18:18;;;;;;;61.37;27.70;;;;;;;3.27;75.59;99229.41;4311584;81;43422;-85
2022/12/21 07:24:22;;;;;;;64.92;27.02;;;;;;;3.90;75.25;99217.21;4327110;81;43396;-86
2022/12/21 07:30:25;;;;;;;63.42;29.12;;;;;;;3.80;73.26;99211.83;4331113;81;28520;-85
2022/12/21 07:36:27;;;;;;;66.30;28.47;;;;;;;3.99;71.21;99213.11;4328661;81;28560;-85
2022/12/21 07:42:28;;;;;;;61.80;29.15;;;;;;;4.22;72.26;99211.67;4295189;81;28510;-86
2022/12/21 07:48:37;;;;;;;59.77;28.50;;;;;;;4.46;70.70;99210.55;4262782;81;28773;-84
2022/12/21 07:54:38;;;;;;;64.97;28.83;;;;;;;4.64;69.07;99189.34;4302216;81;28579;-86
2022/12/21 08:00:40;;;;;;;88.10;33.65;;;;;;;4.77;68.90;99185.16;4325222;81;28566;-84
2022/12/21 08:06:41;;;;;;;72.37;32.42;;;;;;;5.22;68.44;99178.30;4325322;81;28562;-84
2022/12/21 08:12:42;;;;;;;75.87;33.35;;;;;;;5.22;68.44;99178.30;4321253;81;28499;-85
2022/12/21 08:18:43;;;;;;;69.40;30.97;;;;;;;5.96;67.24;99165.42;4319832;81;28496;-84
2022/12/21 08:24:44;;;;;;;64.87;28.98;;;;;;;5.92;66.16;99170.33;4313555;81;28544;-85
2022/12/21 08:30:46;;;;;;;73.00;30.57;;;;;;;6.02;66.05;99159.83;4306346;81;28523;-85
2022/12/21 08:36:47;;;;;;;67.15;31.25;;;;;;;6.31;65.96;99161.91;4310867;81;28623;-85
2022/12/21 08:42:48;;;;;;;75.32;33.70;;;;;;;6.48;65.94;99156.53;4314706;81;28496;-85
2022/12/21 08:48:50;;;;;;;82.47;38.30;;;;;;;6.87;65.30;99167.49;4326826;81;28583;-84
2022/12/21 08:54:51;;;;;;;88.27;40.55;;;;;;;6.97;65.30;99146.53;4290759;81;28609;-85
2022/12/21 09:01:03;;;;;;;88.80;40.75;;;;;;;7.44;64.77;99159.05;4312116;81;28529;-85
2022/12/21 09:07:00;;;;;;;89.62;41.88;;;;;;;7.23;63.79;99144.88;4320959;81;28525;-85
2022/12/21 09:13:02;;;;;;;89.05;41.25;;;;;;;7.64;62.48;99136.80;4303040;81;28581;-85
2022/12/21 09:19:03;;;;;;;80.65;38.23;;;;;;;7.68;62.77;99138.84;4315503;81;28551;-84
2022/12/21 09:25:04;;;;;;;58.80;28.02;;;;;;;7.82;62.81;99133.48;4304073;81;28487;-85
2022/12/21 09:31:20;;;;;;;57.78;27.05;;;;;;;7.78;62.91;99120.19;4314264;81;28535;-85
2022/12/21 09:37:21;;;;;;;56.73;27.20;;;;;;;7.92;63.15;99112.94;4312567;81;28612;-84
2022/12/21 09:43:26;;;;;;;62.55;30.23;;;;;;;8.16;63.11;99127.47;4309393;81;28545;-83
2022/12/21 09:49:40;;;;;;;75.42;34.88;;;;;;;8.21;63.03;99127.64;4311062;81;28504;-83
2022/12/21 09:55:46;;;;;;;78.62;36.60;;;;;;;8.37;61.95;99126.32;4325750;81;28539;-84
2022/12/21 10:02:00;;;;;;;76.87;37.98;;;;;;;8.61;61.56;99131.17;4309070;81;28601;-83
2022/12/21 10:08:39;;;;;;;81.22;38.00;;;;;;;8.51;62.34;99124.42;4290706;81;28532;-83
2022/12/21 10:14:56;;;;;;;81.85;37.88;;;;;;;8.89;62.13;99114.68;4328866;81;28617;-83
2022/12/21 10:21:23;;;;;;;75.42;36.98;;;;;;;8.99;61.07;99102.14;4310327;81;28496;-85
2022/12/21 10:27:25;;;;;;;;;;;;;;;9.13;60.86;99103.36;4332030;81;28515;-82
2022/12/21 10:33:28;;;;;;;78.60;37.93;;;;;;;8.98;60.13;99106.38;4318481;81;20270;-83
2022/12/21 10:39:30;;;;;;;77.97;36.17;;;;;;;9.02;60.64;99084.27;4298433;81;28549;-83
2022/12/21 10:45:31;;;;;;;89.20;41.23;;;;;;;9.12;60.17;99092.33;4310358;82;28507;-84
2022/12/21 10:51:34;;;;;;;77.42;38.88;;;;;;;8.92;60.85;99091.98;4335284;81;28515;-84
2022/12/21 10:57:35;;;;;;;79.85;37.67;;;;;;;9.35;60.22;99083.12;4323058;81;28530;-83
2022/12/21 11:10:00;;;;;;;66.97;32.03;;;;;;;9.22;60.57;99070.38;4293467;81;28509;-85
2022/12/21 11:16:07;;;;;;;71.22;34.30;;;;;;;9.38;60.54;99071.13;4342495;81;28545;-82
2022/12/21 11:22:09;;;;;;;69.95;33.58;;;;;;;9.32;60.54;99082.23;4307624;81;28550;-83
2022/12/21 11:28:10;;;;;;;72.20;33.38;;;;;;;9.32;60.64;99064.80;4289491;81;28522;-83
2022/12/21 11:34:26;;;;;;;64.75;32.25;;;;;;;9.41;60.31;99050.55;4295393;81;28848;-84
2022/12/21 11:40:29;;;;;;;69.97;33.03;;;;;;;9.46;60.68;99053.91;4294469;81;28536;-84
2022/12/21 11:46:46;;;;;;;63.90;30.90;;;;;;;9.78;59.76;99035.48;4308425;81;28498;-83
2022/12/21 11:52:54;;;;;;;61.95;31.37;;;;;;;9.67;60.04;99026.31;4303745;81;28540;-83
2022/12/21 11:58:59;;;;;;;71.37;32.48;;;;;;;9.62;60.26;99022.45;4295163;81;28510;-83
2022/12/21 12:05:07;;;;;;;65.72;32.60;;;;;;;9.77;59.66;99019.89;4293791;81;28562;-83
2022/12/21 12:11:35;;;;;;;65.90;32.28;;;;;;;9.80;59.83;99022.65;4294568;81;28488;-82
2022/12/21 12:17:51;;;;;;;69.72;33.30;;;;;;;9.74;60.47;99016.32;4214307;82;28542;-82
2022/12/21 12:23:56;;;;;;;66.62;32.40;;;;;;;9.69;60.60;99022.37;4292851;81;28485;-83
2022/12/21 12:30:13;;;;;;;73.78;33.45;;;;;;;9.42;61.20;99005.77;4349161;81;28539;-83
2022/12/21 12:36:28;;;;;;;65.55;31.45;;;;;;;9.51;61.10;99012.47;4307779;81;28529;-83
2022/12/21 12:42:39;;;;;;;72.32;34.25;;;;;;;9.45;61.61;99017.39;4324574;81;28546;-83
2022/12/21 12:48:46;;;;;;;65.03;32.20;;;;;;;9.40;61.53;99017.25;4312828;81;28595;-84
2022/12/21 12:55:19;;;;;;;73.57;34.67;;;;;;;9.10;62.11;99002.69;4324852;81;28538;-84
2022/12/21 13:01:39;;;;;;;68.65;33.23;;;;;;;9.12;62.44;99006.50;4192623;84;28603;-84
2022/12/21 13:07:59;;;;;;;64.32;31.68;;;;;;;9.12;62.55;99004.66;4305467;81;28477;-83
2022/12/21 13:14:03;;;;;;;64.82;31.12;;;;;;;9.01;63.14;99002.17;4317328;81;28546;-84
2022/12/21 13:20:06;;;;;;;64.05;31.52;;;;;;;8.92;63.66;99033.82;4319295;81;28592;-83
2022/12/21 13:26:13;;;;;;;67.15;31.42;;;;;;;8.95;63.96;99039.23;4306285;81;28496;-83
2022/12/21 13:32:17;;;;;;;64.95;32.42;;;;;;;8.98;63.94;99042.84;4300138;81;28518;-83
2022/12/21 13:38:25;;;;;;;66.20;32.10;;;;;;;9.12;63.81;99049.41;4307181;81;28504;-83
2022/12/21 13:44:41;;;;;;;69.05;31.77;;;;;;;9.02;63.95;99044.03;4293510;81;28526;-83
2022/12/21 13:50:58;;;;;;;68.30;32.80;;;;;;;9.01;64.45;99039.71;4307799;81;28618;-83
2022/12/21 13:57:19;;;;;;;70.28;33.18;;;;;;;9.12;63.99;99033.32;4306777;81;28491;-81
2022/12/21 14:03:46;;;;;;;68.78;32.75;;;;;;;8.95;64.21;99033.87;4285706;81;28587;-83
2022/12/21 14:10:03;;;;;;;67.70;32.45;;;;;;;8.90;64.92;99025.69;4332693;81;28531;-83
2022/12/21 14:16:16;;;;;;;68.37;33.55;;;;;;;9.19;64.20;99024.16;4322942;81;28562;-83
2022/12/21 14:22:24;;;;;;;71.77;33.95;;;;;;;8.76;65.64;99012.41;4312558;81;28507;-83
2022/12/21 14:28:44;;;;;;;72.32;35.45;;;;;;;8.59;66.33;99026.89;4300326;81;28608;-83
2022/12/21 14:35:00;;;;;;;74.80;34.50;;;;;;;8.81;66.23;99014.44;4302383;81;28506;-83
2022/12/21 14:41:14;;;;;;;76.80;36.17;;;;;;;8.57;67.25;99022.78;4300805;81;28563;-84
2022/12/21 14:47:18;;;;;;;76.47;36.28;;;;;;;8.59;67.62;99032.25;4292168;82;28529;-83
2022/12/21 14:53:26;;;;;;;82.60;38.13;;;;;;;8.59;67.58;99034.92;4301812;81;28554;-81
2022/12/21 14:59:31;;;;;;;82.12;38.88;;;;;;;8.69;67.21;99038.45;4304389;81;28503;-83
2022/12/21 15:05:37;;;;;;;87.12;40.67;;;;;;;8.57;67.68;99042.34;4319878;81;28502;-83
2022/12/21 15:11:39;;;;;;;86.53;40.70;;;;;;;8.50;67.96;99045.58;4323194;81;28610;-84
2022/12/21 15:17:41;;;;;;;86.32;39.08;;;;;;;8.21;69.60;99044.61;4308953;82;28593;-84
2022/12/21 15:23:42;;;;;;;75.45;38.55;;;;;;;8.41;69.53;99048.22;4309039;81;28480;-84
2022/12/21 15:29:48;;;;;;;81.60;38.02;;;;;;;8.43;69.86;99043.45;4327430;81;28542;-84
2022/12/21 15:35:55;;;;;;;77.42;36.35;;;;;;;8.51;70.02;99044.57;4313684;81;28508;-84
2022/12/21 15:42:03;;;;;;;75.65;36.20;;;;;;;8.51;70.17;99037.33;4313450;81;28556;-84
2022/12/21 15:48:08;;;;;;;71.80;34.38;;;;;;;8.42;71.33;99041.81;4310571;81;28511;-84
2022/12/21 15:54:15;;;;;;;78.22;35.75;;;;;;;8.50;71.42;99038.88;4320580;81;28504;-84
2022/12/21 16:00:20;;;;;;;73.83;34.27;;;;;;;8.39;72.36;99036.91;4323336;81;28545;-83
2022/12/21 16:06:26;;;;;;;71.42;34.95;;;;;;;8.51;71.72;99025.27;4323459;81;28586;-84
2022/12/21 16:12:37;;;;;;;74.53;34.63;;;;;;;8.54;71.96;99026.70;4305301;81;28522;-84
2022/12/21 16:18:38;;;;;;;69.82;33.78;;;;;;;8.49;72.93;99015.80;4309069;81;28544;-83
2022/12/21 16:24:45;;;;;;;75.50;32.95;;;;;;;8.54;73.53;99020.00;4303702;81;28506;-83
2022/12/21 16:31:01;;;;;;;72.60;32.60;;;;;;;8.41;74.78;99008.03;4297449;81;28610;-84
2022/12/21 16:37:23;;;;;;;65.72;31.48;;;;;;;8.48;74.57;99008.27;4332104;81;28526;-84
2022/12/21 16:43:25;;;;;;;68.45;32.28;;;;;;;8.62;73.96;99002.33;4333443;81;28521;-82
2022/12/21 16:49:29;;;;;;;65.62;32.55;;;;;;;8.58;74.82;98996.28;4310519;81;28488;-82
2022/12/21 16:55:30;;;;;;;67.15;31.48;;;;;;;8.55;74.97;98994.05;4311138;81;28578;-83
2022/12/21 17:01:37;;;;;;;69.77;31.97;;;;;;;8.45;75.93;98985.94;4316192;81;28557;-83
2022/12/21 17:07:41;;;;;;;63.50;30.65;;;;;;;8.31;77.21;98985.73;4308115;81;28500;-83
2022/12/21 17:13:42;;;;;;;60.23;29.30;;;;;;;8.39;76.88;98985.46;4310797;81;28471;-83
2022/12/21 17:20:05;;;;;;;66.62;30.50;;;;;;;8.27;77.98;98984.53;4309174;81;28533;-84
2022/12/21 17:26:10;;;;;;;63.70;27.87;;;;;;;8.45;77.43;98979.75;4245579;81;28502;-80
2022/12/21 17:32:14;;;;;;;59.50;27.15;;;;;;;8.48;77.57;98972.61;4286162;81;28511;-84
2022/12/21 17:38:16;;;;;;;64.70;29.25;;;;;;;8.53;76.36;98970.13;4313581;81;28487;-84
2022/12/21 17:44:18;;;;;;;65.05;29.23;;;;;;;8.35;77.75;98960.16;4307094;81;28537;-84
2022/12/21 17:50:25;;;;;;;63.78;29.75;;;;;;;8.45;77.98;98950.28;4309197;81;28491;-84
2022/12/21 17:56:26;;;;;;;61.20;29.77;;;;;;;8.25;78.22;98943.22;4319568;81;28581;-84
2022/12/21 18:02:28;;;;;;;62.43;30.12;;;;;;;8.34;77.92;98937.09;4337011;81;28518;-85
2022/12/21 18:08:30;;;;;;;63.55;30.62;;;;;;;8.27;79.05;98937.66;4310714;81;28577;-84
2022/12/21 18:14:31;;;;;;;65.72;30.40;;;;;;;8.28;79.43;98932.59;4323736;81;28494;-83
2022/12/21 18:20:36;;;;;;;64.55;29.65;;;;;;;8.04;80.48;98929.70;4308698;81;28510;-84
2022/12/21 18:26:37;;;;;;;59.93;28.07;;;;;;;8.07;82.52;98935.44;4308591;81;28530;-85
2022/12/21 18:32:40;;;;;;;66.50;30.77;;;;;;;7.90;84.02;98937.00;4282588;81;28531;-84
2022/12/21 18:38:42;;;;;;;63.98;29.52;;;;;;;8.22;81.90;98931.08;4304750;81;28557;-84
2022/12/21 18:44:43;;;;;;;58.13;27.90;;;;;;;8.13;84.57;98924.38;4304689;81;28498;-84
2022/12/21 18:50:44;;;;;;;57.88;26.95;;;;;;;7.93;86.08;98919.16;4305103;81;28484;-84
2022/12/21 18:56:46;;;;;;;58.38;27.02;;;;;;;7.94;84.61;98905.56;4322460;81;28480;-84
2022/12/21 19:02:51;;;;;;;62.45;28.32;;;;;;;7.87;86.49;98901.30;4265181;81;28573;-84
2022/12/21 19:08:55;;;;;;;64.72;29.65;;;;;;;7.98;86.95;98908.63;4317340;81;28516;-83
2022/12/21 19:14:56;;;;;;;63.60;30.75;;;;;;;7.95;87.33;98903.19;4299082;81;28538;-84
2022/12/21 19:20:58;;;;;;;65.12;30.43;;;;;;;7.94;85.09;98890.84;4348178;81;28582;-83
2022/12/21 19:26:59;;;;;;;63.48;32.33;;;;;;;7.92;85.81;98896.94;4315666;81;28503;-83
2022/12/21 19:33:00;;;;;;;65.90;30.30;;;;;;;7.71;86.36;98889.27;4292786;81;28927;-83
2022/12/21 19:39:03;;;;;;;71.55;32.33;;;;;;;7.78;85.87;98887.34;4310863;81;28502;-84
2022/12/21 19:45:08;;;;;;;69.37;32.65;;;;;;;7.83;86.61;98892.88;4308382;81;28503;-84
2022/12/21 19:51:11;;;;;;;72.45;34.38;;;;;;;7.79;86.27;98887.13;4294491;81;28523;-83
2022/12/21 19:57:27;;;;;;;74.65;32.67;;;;;;;7.79;86.00;98884.96;4308165;81;28652;-84
2022/12/21 20:03:28;;;;;;;70.78;32.60;;;;;;;7.57;87.37;98895.20;4311983;81;28631;-84
2022/12/21 20:09:31;;;;;;;68.83;32.55;;;;;;;7.66;88.23;98892.05;4319529;81;28466;-83
2022/12/21 20:15:32;;;;;;;69.60;31.97;;;;;;;7.50;88.84;98902.73;4334677;80;28576;-83
2022/12/21 20:21:33;;;;;;;75.08;35.20;;;;;;;7.81;87.58;98890.41;4307521;82;28472;-82
2022/12/21 20:27:37;;;;;;;72.58;34.88;;;;;;;7.60;88.68;98892.09;4343746;81;28629;-84
2022/12/21 20:33:38;;;;;;;82.80;36.55;;;;;;;7.53;89.17;98893.47;4312708;81;28609;-84
2022/12/21 20:39:40;;;;;;;74.20;36.35;;;;;;;7.49;90.03;98904.28;4273488;81;28534;-84
2022/12/21 20:45:43;;;;;;;87.10;38.53;;;;;;;7.59;89.42;98899.28;4299427;81;28567;-84
2022/12/21 20:51:45;;;;;;;82.42;38.28;;;;;;;7.65;88.34;98907.80;4317829;81;28588;-84
2022/12/21 20:57:48;;;;;;;86.00;40.80;;;;;;;7.74;87.81;98893.64;4320605;81;28586;-85
2022/12/21 21:03:49;;;;;;;90.17;41.45;;;;;;;7.67;87.83;98888.33;4306450;81;28515;-84
2022/12/21 21:09:50;;;;;;;94.28;42.67;;;;;;;7.73;88.25;98891.20;4319131;81;28546;-84
2022/12/21 21:15:53;;;;;;;97.72;45.33;;;;;;;7.78;88.31;98888.17;4315266;81;28475;-83
2022/12/21 21:28:23;;;;;;;96.35;46.95;;;;;;;7.86;87.34;98895.11;4265034;81;28548;-84
2022/12/21 21:34:24;;;;;;;100.78;48.20;;;;;;;7.90;85.72;98889.61;4264294;81;28506;-85
2022/12/21 21:46:46;;;;;;;96.08;45.23;;;;;;;7.95;86.09;98902.34;4259526;81;28490;-84
2022/12/21 21:52:47;;;;;;;98.10;45.43;;;;;;;7.99;85.99;98895.54;4262421;81;28541;-84
2022/12/21 21:58:48;;;;;;;97.42;43.92;;;;;;;7.97;85.78;98894.11;4309756;81;28504;-84
2022/12/21 22:04:50;;;;;;;105.63;45.25;;;;;;;7.99;84.99;98890.69;4268285;81;28584;-83
2022/12/21 22:10:52;;;;;;;95.35;43.87;;;;;;;8.00;84.82;98888.31;4272373;81;28575;-83
2022/12/21 22:16:53;;;;;;;94.55;42.27;;;;;;;7.93;86.03;98889.20;4275593;82;28531;-83
2022/12/21 22:42:26;;;;;;;86.15;38.15;;;;;;;8.02;85.48;98879.03;4310641;81;28545;-84
2022/12/21 22:48:28;;;;;;;89.20;39.67;;;;;;;8.08;86.48;98868.80;4324729;81;28565;-85
2022/12/21 22:54:29;;;;;;;80.85;37.60;;;;;;;8.02;86.34;98893.76;4323275;81;28589;-84
2022/12/21 23:00:30;;;;;;;83.12;36.28;;;;;;;7.95;86.98;98890.30;4314087;81;28544;-84
2022/12/21 23:06:31;;;;;;;73.12;34.75;;;;;;;7.83;87.52;98886.69;4294212;81;28537;-83
2022/12/21 23:18:52;;;;;;;80.05;35.23;;;;;;;7.99;87.95;98900.06;4323067;81;28541;-83
2022/12/21 23:44:01;;;;;;;71.00;33.13;;;;;;;7.97;87.28;98881.56;4295317;81;28479;-83
